sensor_id;sensor_type;location;lat;lon;timestamp;temperature;humidity
22635;DHT22;11484;50.858;4.384;2023-07-13T00:00:28;20.50;97.20
22635;DHT22;11484;50.858;4.384;2023-07-13T00:02:54;20.50;97.40
22635;DHT22;11484;50.858;4.384;2023-07-13T00:05:21;20.50;97.40
22635;DHT22;11484;50.858;4.384;2023-07-13T00:07:47;20.40;97.60
22635;DHT22;11484;50.858;4.384;2023-07-13T00:10:14;20.40;97.80
22635;DHT22;11484;50.858;4.384;2023-07-13T00:12:40;20.30;98.10
22635;DHT22;11484;50.858;4.384;2023-07-13T00:15:12;20.30;98.30
22635;DHT22;11484;50.858;4.384;2023-07-13T00:17:39;20.40;98.40
22635;DHT22;11484;50.858;4.384;2023-07-13T00:20:05;20.40;98.40
22635;DHT22;11484;50.858;4.384;2023-07-13T00:22:32;20.40;98.50
22635;DHT22;11484;50.858;4.384;2023-07-13T00:24:58;20.30;98.80
22635;DHT22;11484;50.858;4.384;2023-07-13T00:27:24;20.30;99.00
22635;DHT22;11484;50.858;4.384;2023-07-13T00:29:52;20.30;99.20
22635;DHT22;11484;50.858;4.384;2023-07-13T00:32:18;20.30;99.30
22635;DHT22;11484;50.858;4.384;2023-07-13T00:34:44;20.20;99.70
22635;DHT22;11484;50.858;4.384;2023-07-13T00:37:09;20.20;99.90
22635;DHT22;11484;50.858;4.384;2023-07-13T00:39:36;20.20;99.90
22635;DHT22;11484;50.858;4.384;2023-07-13T00:42:04;20.30;99.90
22635;DHT22;11484;50.858;4.384;2023-07-13T00:44:30;20.30;99.90
22635;DHT22;11484;50.858;4.384;2023-07-13T00:46:56;20.30;99.90
22635;DHT22;11484;50.858;4.384;2023-07-13T00:49:26;20.20;99.90
22635;DHT22;11484;50.858;4.384;2023-07-13T00:51:59;20.20;99.90
22635;DHT22;11484;50.858;4.384;2023-07-13T00:54:38;20.20;99.90
22635;DHT22;11484;50.858;4.384;2023-07-13T00:57:09;20.10;99.90
22635;DHT22;11484;50.858;4.384;2023-07-13T00:59:36;20.10;99.90
22635;DHT22;11484;50.858;4.384;2023-07-13T01:02:04;20.10;99.90
22635;DHT22;11484;50.858;4.384;2023-07-13T01:04:29;20.00;99.90
22635;DHT22;11484;50.858;4.384;2023-07-13T01:06:56;20.00;99.90
22635;DHT22;11484;50.858;4.384;2023-07-13T01:09:22;20.00;99.90
22635;DHT22;11484;50.858;4.384;2023-07-13T01:11:48;20.00;99.90
22635;DHT22;11484;50.858;4.384;2023-07-13T01:14:14;20.00;99.90
22635;DHT22;11484;50.858;4.384;2023-07-13T01:16:42;19.90;99.90
22635;DHT22;11484;50.858;4.384;2023-07-13T01:19:21;19.80;99.90
22635;DHT22;11484;50.858;4.384;2023-07-13T01:21:52;19.80;99.90
22635;DHT22;11484;50.858;4.384;2023-07-13T01:24:18;19.90;99.90
22635;DHT22;11484;50.858;4.384;2023-07-13T01:26:43;19.90;99.90
22635;DHT22;11484;50.858;4.384;2023-07-13T01:29:09;19.80;99.90
22635;DHT22;11484;50.858;4.384;2023-07-13T01:31:35;19.80;99.90
22635;DHT22;11484;50.858;4.384;2023-07-13T01:34:00;19.80;99.90
22635;DHT22;11484;50.858;4.384;2023-07-13T01:36:26;19.80;99.90
22635;DHT22;11484;50.858;4.384;2023-07-13T01:38:52;19.70;99.90
22635;DHT22;11484;50.858;4.384;2023-07-13T01:41:18;19.70;99.90
22635;DHT22;11484;50.858;4.384;2023-07-13T01:43:43;19.60;99.90
22635;DHT22;11484;50.858;4.384;2023-07-13T01:46:09;19.60;99.90
22635;DHT22;11484;50.858;4.384;2023-07-13T01:48:35;19.60;99.90
22635;DHT22;11484;50.858;4.384;2023-07-13T01:51:01;19.60;99.90
22635;DHT22;11484;50.858;4.384;2023-07-13T01:53:26;19.60;99.90
22635;DHT22;11484;50.858;4.384;2023-07-13T01:55:52;19.60;99.90
22635;DHT22;11484;50.858;4.384;2023-07-13T01:58:18;19.70;99.90
22635;DHT22;11484;50.858;4.384;2023-07-13T02:00:43;19.60;99.90
22635;DHT22;11484;50.858;4.384;2023-07-13T02:03:09;19.50;99.90
22635;DHT22;11484;50.858;4.384;2023-07-13T02:05:35;19.50;99.90
22635;DHT22;11484;50.858;4.384;2023-07-13T02:08:01;19.50;99.90
22635;DHT22;11484;50.858;4.384;2023-07-13T02:10:27;19.50;99.90
22635;DHT22;11484;50.858;4.384;2023-07-13T02:12:53;19.40;99.90
22635;DHT22;11484;50.858;4.384;2023-07-13T02:15:19;19.30;99.90
22635;DHT22;11484;50.858;4.384;2023-07-13T02:17:46;19.40;99.90
22635;DHT22;11484;50.858;4.384;2023-07-13T02:20:11;19.30;99.90
22635;DHT22;11484;50.858;4.384;2023-07-13T02:22:37;19.30;99.90
22635;DHT22;11484;50.858;4.384;2023-07-13T02:25:03;19.30;99.90
22635;DHT22;11484;50.858;4.384;2023-07-13T02:27:29;19.30;99.90
22635;DHT22;11484;50.858;4.384;2023-07-13T02:29:55;19.20;99.90
22635;DHT22;11484;50.858;4.384;2023-07-13T02:32:20;19.00;99.90
22635;DHT22;11484;50.858;4.384;2023-07-13T02:34:46;19.00;99.90
22635;DHT22;11484;50.858;4.384;2023-07-13T02:37:12;19.00;99.90
22635;DHT22;11484;50.858;4.384;2023-07-13T02:39:38;19.10;99.90
22635;DHT22;11484;50.858;4.384;2023-07-13T02:42:03;19.10;99.90
22635;DHT22;11484;50.858;4.384;2023-07-13T02:44:29;19.00;99.90
22635;DHT22;11484;50.858;4.384;2023-07-13T02:46:55;19.00;99.90
22635;DHT22;11484;50.858;4.384;2023-07-13T02:49:21;19.00;99.90
22635;DHT22;11484;50.858;4.384;2023-07-13T02:51:46;19.00;99.90
22635;DHT22;11484;50.858;4.384;2023-07-13T02:54:12;19.10;99.90
22635;DHT22;11484;50.858;4.384;2023-07-13T02:56:39;19.10;99.90
22635;DHT22;11484;50.858;4.384;2023-07-13T02:59:05;19.00;99.90
22635;DHT22;11484;50.858;4.384;2023-07-13T03:01:31;19.20;99.90
22635;DHT22;11484;50.858;4.384;2023-07-13T03:03:58;19.20;99.90
22635;DHT22;11484;50.858;4.384;2023-07-13T03:06:23;19.10;99.90
22635;DHT22;11484;50.858;4.384;2023-07-13T03:08:50;19.10;99.90
22635;DHT22;11484;50.858;4.384;2023-07-13T03:11:18;19.00;99.90
22635;DHT22;11484;50.858;4.384;2023-07-13T03:13:44;19.00;99.90
22635;DHT22;11484;50.858;4.384;2023-07-13T03:16:11;19.00;99.90
22635;DHT22;11484;50.858;4.384;2023-07-13T03:18:37;18.90;99.90
22635;DHT22;11484;50.858;4.384;2023-07-13T03:21:04;18.90;99.90
22635;DHT22;11484;50.858;4.384;2023-07-13T03:23:30;18.90;99.90
22635;DHT22;11484;50.858;4.384;2023-07-13T03:26:11;18.90;99.90
22635;DHT22;11484;50.858;4.384;2023-07-13T03:28:38;18.90;99.90
22635;DHT22;11484;50.858;4.384;2023-07-13T03:31:10;18.90;99.90
22635;DHT22;11484;50.858;4.384;2023-07-13T03:33:37;18.90;99.90
22635;DHT22;11484;50.858;4.384;2023-07-13T03:36:04;18.90;99.90
22635;DHT22;11484;50.858;4.384;2023-07-13T03:38:30;18.90;99.90
22635;DHT22;11484;50.858;4.384;2023-07-13T03:40:56;18.90;99.90
22635;DHT22;11484;50.858;4.384;2023-07-13T03:43:22;18.90;99.90
22635;DHT22;11484;50.858;4.384;2023-07-13T03:45:47;19.00;99.90
22635;DHT22;11484;50.858;4.384;2023-07-13T03:48:13;19.10;99.90
22635;DHT22;11484;50.858;4.384;2023-07-13T03:50:41;19.10;99.90
22635;DHT22;11484;50.858;4.384;2023-07-13T03:53:06;19.10;99.90
22635;DHT22;11484;50.858;4.384;2023-07-13T03:55:32;19.10;99.90
22635;DHT22;11484;50.858;4.384;2023-07-13T03:58:00;19.10;99.90
22635;DHT22;11484;50.858;4.384;2023-07-13T04:00:26;19.10;99.90
22635;DHT22;11484;50.858;4.384;2023-07-13T04:02:52;19.20;99.90
22635;DHT22;11484;50.858;4.384;2023-07-13T04:05:18;19.30;99.90
22635;DHT22;11484;50.858;4.384;2023-07-13T04:07:44;19.20;99.90
22635;DHT22;11484;50.858;4.384;2023-07-13T04:10:10;19.20;99.90
22635;DHT22;11484;50.858;4.384;2023-07-13T04:12:35;19.30;99.90
22635;DHT22;11484;50.858;4.384;2023-07-13T04:15:01;19.30;99.90
22635;DHT22;11484;50.858;4.384;2023-07-13T04:17:27;19.40;99.90
22635;DHT22;11484;50.858;4.384;2023-07-13T04:19:52;19.40;99.90
22635;DHT22;11484;50.858;4.384;2023-07-13T04:22:18;19.40;99.90
22635;DHT22;11484;50.858;4.384;2023-07-13T04:24:44;19.40;99.90
22635;DHT22;11484;50.858;4.384;2023-07-13T04:27:10;19.40;99.90
22635;DHT22;11484;50.858;4.384;2023-07-13T04:29:35;19.40;99.90
22635;DHT22;11484;50.858;4.384;2023-07-13T04:32:01;19.40;99.90
22635;DHT22;11484;50.858;4.384;2023-07-13T04:34:27;19.30;99.90
22635;DHT22;11484;50.858;4.384;2023-07-13T04:36:52;19.40;99.90
22635;DHT22;11484;50.858;4.384;2023-07-13T04:39:18;19.30;99.90
22635;DHT22;11484;50.858;4.384;2023-07-13T04:41:44;19.40;99.90
22635;DHT22;11484;50.858;4.384;2023-07-13T04:44:09;19.50;99.90
22635;DHT22;11484;50.858;4.384;2023-07-13T04:46:35;19.50;99.90
22635;DHT22;11484;50.858;4.384;2023-07-13T04:49:01;19.50;99.90
22635;DHT22;11484;50.858;4.384;2023-07-13T04:51:29;19.50;99.90
22635;DHT22;11484;50.858;4.384;2023-07-13T04:53:55;19.40;99.90
22635;DHT22;11484;50.858;4.384;2023-07-13T04:56:20;19.50;99.90
22635;DHT22;11484;50.858;4.384;2023-07-13T04:58:46;19.50;99.90
22635;DHT22;11484;50.858;4.384;2023-07-13T05:01:12;19.50;99.90
22635;DHT22;11484;50.858;4.384;2023-07-13T05:03:39;19.60;99.90
22635;DHT22;11484;50.858;4.384;2023-07-13T05:06:07;19.60;99.90
22635;DHT22;11484;50.858;4.384;2023-07-13T05:08:33;19.60;99.90
22635;DHT22;11484;50.858;4.384;2023-07-13T05:11:05;19.60;99.90
22635;DHT22;11484;50.858;4.384;2023-07-13T05:13:32;19.60;99.90
22635;DHT22;11484;50.858;4.384;2023-07-13T05:16:02;19.60;99.90
22635;DHT22;11484;50.858;4.384;2023-07-13T05:18:29;19.70;99.90
22635;DHT22;11484;50.858;4.384;2023-07-13T05:20:58;19.60;99.90
22635;DHT22;11484;50.858;4.384;2023-07-13T05:23:24;19.70;99.90
22635;DHT22;11484;50.858;4.384;2023-07-13T05:25:49;19.70;99.90
22635;DHT22;11484;50.858;4.384;2023-07-13T05:28:15;19.70;99.90
22635;DHT22;11484;50.858;4.384;2023-07-13T05:30:46;19.70;99.90
22635;DHT22;11484;50.858;4.384;2023-07-13T05:33:12;19.70;99.90
22635;DHT22;11484;50.858;4.384;2023-07-13T05:35:38;19.70;99.90
22635;DHT22;11484;50.858;4.384;2023-07-13T05:38:03;19.60;99.90
22635;DHT22;11484;50.858;4.384;2023-07-13T05:40:29;19.60;99.90
22635;DHT22;11484;50.858;4.384;2023-07-13T05:42:56;19.70;99.90
22635;DHT22;11484;50.858;4.384;2023-07-13T05:45:21;19.80;99.90
22635;DHT22;11484;50.858;4.384;2023-07-13T05:47:47;19.80;99.90
22635;DHT22;11484;50.858;4.384;2023-07-13T05:50:13;19.80;99.90
22635;DHT22;11484;50.858;4.384;2023-07-13T05:52:39;19.90;99.90
22635;DHT22;11484;50.858;4.384;2023-07-13T05:55:04;19.90;99.90
22635;DHT22;11484;50.858;4.384;2023-07-13T05:57:31;20.10;99.90
22635;DHT22;11484;50.858;4.384;2023-07-13T05:59:57;20.00;99.90
22635;DHT22;11484;50.858;4.384;2023-07-13T06:02:23;20.10;99.90
22635;DHT22;11484;50.858;4.384;2023-07-13T06:04:48;20.10;99.90
22635;DHT22;11484;50.858;4.384;2023-07-13T06:07:14;20.10;99.90
22635;DHT22;11484;50.858;4.384;2023-07-13T06:09:40;20.10;99.90
22635;DHT22;11484;50.858;4.384;2023-07-13T06:12:06;20.20;99.90
22635;DHT22;11484;50.858;4.384;2023-07-13T06:14:32;20.20;99.90
22635;DHT22;11484;50.858;4.384;2023-07-13T06:16:58;20.20;99.90
22635;DHT22;11484;50.858;4.384;2023-07-13T06:19:23;20.20;99.90
22635;DHT22;11484;50.858;4.384;2023-07-13T06:21:49;20.30;99.90
22635;DHT22;11484;50.858;4.384;2023-07-13T06:24:15;20.40;99.90
22635;DHT22;11484;50.858;4.384;2023-07-13T06:26:41;20.50;99.90
22635;DHT22;11484;50.858;4.384;2023-07-13T06:29:07;20.50;99.90
22635;DHT22;11484;50.858;4.384;2023-07-13T06:31:35;20.50;99.90
22635;DHT22;11484;50.858;4.384;2023-07-13T06:34:01;20.70;99.90
22635;DHT22;11484;50.858;4.384;2023-07-13T06:36:26;20.70;99.90
22635;DHT22;11484;50.858;4.384;2023-07-13T06:38:52;20.80;99.90
22635;DHT22;11484;50.858;4.384;2023-07-13T06:41:18;20.80;99.90
22635;DHT22;11484;50.858;4.384;2023-07-13T06:43:43;20.90;99.90
22635;DHT22;11484;50.858;4.384;2023-07-13T06:46:10;21.00;99.90
22635;DHT22;11484;50.858;4.384;2023-07-13T06:48:35;21.10;99.90
22635;DHT22;11484;50.858;4.384;2023-07-13T06:51:02;21.20;99.90
22635;DHT22;11484;50.858;4.384;2023-07-13T06:53:28;21.30;99.90
22635;DHT22;11484;50.858;4.384;2023-07-13T06:55:53;21.40;99.90
22635;DHT22;11484;50.858;4.384;2023-07-13T06:58:20;21.50;99.90
22635;DHT22;11484;50.858;4.384;2023-07-13T07:00:46;21.60;99.90
22635;DHT22;11484;50.858;4.384;2023-07-13T07:03:12;21.70;99.90
22635;DHT22;11484;50.858;4.384;2023-07-13T07:05:38;21.80;99.90
22635;DHT22;11484;50.858;4.384;2023-07-13T07:08:07;21.90;99.90
22635;DHT22;11484;50.858;4.384;2023-07-13T07:10:33;22.00;99.90
22635;DHT22;11484;50.858;4.384;2023-07-13T07:12:59;21.90;99.90
22635;DHT22;11484;50.858;4.384;2023-07-13T07:15:26;21.90;99.90
22635;DHT22;11484;50.858;4.384;2023-07-13T07:17:52;22.00;99.90
22635;DHT22;11484;50.858;4.384;2023-07-13T07:20:18;22.00;99.90
22635;DHT22;11484;50.858;4.384;2023-07-13T07:22:43;22.20;99.90
22635;DHT22;11484;50.858;4.384;2023-07-13T07:25:09;22.40;99.90
22635;DHT22;11484;50.858;4.384;2023-07-13T07:27:35;22.70;99.90
22635;DHT22;11484;50.858;4.384;2023-07-13T07:30:01;22.70;99.90
22635;DHT22;11484;50.858;4.384;2023-07-13T07:32:28;22.90;99.90
22635;DHT22;11484;50.858;4.384;2023-07-13T07:34:54;23.10;99.90
22635;DHT22;11484;50.858;4.384;2023-07-13T07:37:19;23.90;99.90
22635;DHT22;11484;50.858;4.384;2023-07-13T07:39:46;24.50;99.90
22635;DHT22;11484;50.858;4.384;2023-07-13T07:42:11;25.00;99.80
22635;DHT22;11484;50.858;4.384;2023-07-13T07:44:39;25.70;98.30
22635;DHT22;11484;50.858;4.384;2023-07-13T07:47:05;26.30;96.50
22635;DHT22;11484;50.858;4.384;2023-07-13T07:49:31;26.60;95.70
22635;DHT22;11484;50.858;4.384;2023-07-13T07:51:56;27.30;94.10
22635;DHT22;11484;50.858;4.384;2023-07-13T07:54:22;28.30;92.10
22635;DHT22;11484;50.858;4.384;2023-07-13T07:56:48;29.00;88.40
22635;DHT22;11484;50.858;4.384;2023-07-13T07:59:14;29.40;85.90
22635;DHT22;11484;50.858;4.384;2023-07-13T08:01:39;30.00;83.40
22635;DHT22;11484;50.858;4.384;2023-07-13T08:04:05;30.30;79.60
22635;DHT22;11484;50.858;4.384;2023-07-13T08:06:34;30.10;78.80
22635;DHT22;11484;50.858;4.384;2023-07-13T08:09:00;30.60;76.90
22635;DHT22;11484;50.858;4.384;2023-07-13T08:11:27;31.50;73.90
22635;DHT22;11484;50.858;4.384;2023-07-13T08:13:52;32.10;70.50
22635;DHT22;11484;50.858;4.384;2023-07-13T08:16:19;31.50;69.20
22635;DHT22;11484;50.858;4.384;2023-07-13T08:18:45;30.50;70.80
22635;DHT22;11484;50.858;4.384;2023-07-13T08:21:11;29.60;73.10
22635;DHT22;11484;50.858;4.384;2023-07-13T08:23:37;28.90;74.90
22635;DHT22;11484;50.858;4.384;2023-07-13T08:26:04;28.40;76.70
22635;DHT22;11484;50.858;4.384;2023-07-13T08:28:30;27.60;79.20
22635;DHT22;11484;50.858;4.384;2023-07-13T08:31:01;27.30;81.20
22635;DHT22;11484;50.858;4.384;2023-07-13T08:33:27;27.60;80.50
22635;DHT22;11484;50.858;4.384;2023-07-13T08:35:53;27.60;80.70
22635;DHT22;11484;50.858;4.384;2023-07-13T08:38:19;27.70;80.90
22635;DHT22;11484;50.858;4.384;2023-07-13T08:40:51;27.90;80.30
22635;DHT22;11484;50.858;4.384;2023-07-13T08:43:22;28.00;78.90
22635;DHT22;11484;50.858;4.384;2023-07-13T08:46:05;27.90;79.60
22635;DHT22;11484;50.858;4.384;2023-07-13T08:48:38;28.30;79.40
22635;DHT22;11484;50.858;4.384;2023-07-13T08:54:19;30.20;74.30
22635;DHT22;11484;50.858;4.384;2023-07-13T08:56:46;31.30;70.30
22635;DHT22;11484;50.858;4.384;2023-07-13T08:59:17;31.90;68.20
22635;DHT22;11484;50.858;4.384;2023-07-13T09:01:56;32.40;66.30
22635;DHT22;11484;50.858;4.384;2023-07-13T09:04:34;32.90;63.70
22635;DHT22;11484;50.858;4.384;2023-07-13T09:07:09;32.90;62.70
22635;DHT22;11484;50.858;4.384;2023-07-13T09:10:02;33.20;61.80
22635;DHT22;11484;50.858;4.384;2023-07-13T09:12:57;33.00;61.30
22635;DHT22;11484;50.858;4.384;2023-07-13T09:15:29;33.60;60.50
22635;DHT22;11484;50.858;4.384;2023-07-13T09:20:59;32.90;60.00
22635;DHT22;11484;50.858;4.384;2023-07-13T09:23:28;33.40;59.60
22635;DHT22;11484;50.858;4.384;2023-07-13T09:26:19;33.20;59.40
22635;DHT22;11484;50.858;4.384;2023-07-13T09:28:48;32.80;59.10
22635;DHT22;11484;50.858;4.384;2023-07-13T09:31:21;32.50;60.30
22635;DHT22;11484;50.858;4.384;2023-07-13T09:33:49;32.50;60.60
22635;DHT22;11484;50.858;4.384;2023-07-13T09:36:26;32.30;60.30
22635;DHT22;11484;50.858;4.384;2023-07-13T09:39:25;32.60;60.50
22635;DHT22;11484;50.858;4.384;2023-07-13T09:42:07;31.80;60.60
22635;DHT22;11484;50.858;4.384;2023-07-13T09:44:44;30.80;62.10
22635;DHT22;11484;50.858;4.384;2023-07-13T09:47:16;29.80;64.50
22635;DHT22;11484;50.858;4.384;2023-07-13T09:49:42;28.70;67.00
22635;DHT22;11484;50.858;4.384;2023-07-13T09:52:14;28.00;68.40
22635;DHT22;11484;50.858;4.384;2023-07-13T09:54:44;27.70;69.60
22635;DHT22;11484;50.858;4.384;2023-07-13T09:57:14;28.50;69.30
22635;DHT22;11484;50.858;4.384;2023-07-13T09:59:48;29.30;66.90
22635;DHT22;11484;50.858;4.384;2023-07-13T10:02:32;29.10;66.00
22635;DHT22;11484;50.858;4.384;2023-07-13T10:05:02;29.40;66.40
22635;DHT22;11484;50.858;4.384;2023-07-13T10:07:29;29.80;65.80
22635;DHT22;11484;50.858;4.384;2023-07-13T10:09:57;30.60;63.70
22635;DHT22;11484;50.858;4.384;2023-07-13T10:12:24;30.00;63.40
22635;DHT22;11484;50.858;4.384;2023-07-13T10:15:00;29.60;65.00
22635;DHT22;11484;50.858;4.384;2023-07-13T10:17:31;30.10;64.40
22635;DHT22;11484;50.858;4.384;2023-07-13T10:20:03;30.10;63.70
22635;DHT22;11484;50.858;4.384;2023-07-13T10:22:42;30.50;63.20
22635;DHT22;11484;50.858;4.384;2023-07-13T10:25:31;30.30;62.70
22635;DHT22;11484;50.858;4.384;2023-07-13T10:28:02;29.70;63.90
22635;DHT22;11484;50.858;4.384;2023-07-13T10:30:34;30.00;63.60
22635;DHT22;11484;50.858;4.384;2023-07-13T10:33:10;29.80;64.10
22635;DHT22;11484;50.858;4.384;2023-07-13T10:35:39;29.50;64.80
22635;DHT22;11484;50.858;4.384;2023-07-13T10:38:14;29.10;65.70
22635;DHT22;11484;50.858;4.384;2023-07-13T10:40:56;28.50;67.00
22635;DHT22;11484;50.858;4.384;2023-07-13T10:43:29;27.90;67.30
22635;DHT22;11484;50.858;4.384;2023-07-13T10:45:59;27.30;68.70
22635;DHT22;11484;50.858;4.384;2023-07-13T10:48:26;27.00;69.90
22635;DHT22;11484;50.858;4.384;2023-07-13T10:50:55;26.70;71.60
22635;DHT22;11484;50.858;4.384;2023-07-13T10:53:34;26.40;72.10
22635;DHT22;11484;50.858;4.384;2023-07-13T10:58:42;26.10;73.80
22635;DHT22;11484;50.858;4.384;2023-07-13T11:01:16;26.00;74.40
22635;DHT22;11484;50.858;4.384;2023-07-13T11:03:54;26.10;74.60
22635;DHT22;11484;50.858;4.384;2023-07-13T11:09:03;26.30;74.00
22635;DHT22;11484;50.858;4.384;2023-07-13T11:11:43;26.30;74.00
22635;DHT22;11484;50.858;4.384;2023-07-13T11:16:55;26.00;75.20
22635;DHT22;11484;50.858;4.384;2023-07-13T11:19:24;26.20;74.90
22635;DHT22;11484;50.858;4.384;2023-07-13T11:25:20;26.30;73.60
22635;DHT22;11484;50.858;4.384;2023-07-13T11:27:52;26.40;73.50
22635;DHT22;11484;50.858;4.384;2023-07-13T11:30:32;26.30;73.10
22635;DHT22;11484;50.858;4.384;2023-07-13T11:35:45;26.50;70.90
22635;DHT22;11484;50.858;4.384;2023-07-13T11:38:36;26.30;72.00
22635;DHT22;11484;50.858;4.384;2023-07-13T11:41:22;26.00;74.10
22635;DHT22;11484;50.858;4.384;2023-07-13T11:43:54;25.90;75.00
22635;DHT22;11484;50.858;4.384;2023-07-13T11:46:27;25.70;75.60
22635;DHT22;11484;50.858;4.384;2023-07-13T11:48:53;25.30;76.50
22635;DHT22;11484;50.858;4.384;2023-07-13T11:51:34;25.20;77.30
22635;DHT22;11484;50.858;4.384;2023-07-13T11:54:03;25.10;77.60
22635;DHT22;11484;50.858;4.384;2023-07-13T11:56:30;25.00;78.30
22635;DHT22;11484;50.858;4.384;2023-07-13T11:58:59;25.00;77.80
22635;DHT22;11484;50.858;4.384;2023-07-13T12:01:31;24.90;78.00
22635;DHT22;11484;50.858;4.384;2023-07-13T12:04:04;24.80;78.30
22635;DHT22;11484;50.858;4.384;2023-07-13T12:06:34;24.70;78.60
22635;DHT22;11484;50.858;4.384;2023-07-13T12:09:03;24.40;78.90
22635;DHT22;11484;50.858;4.384;2023-07-13T12:11:40;24.40;79.80
22635;DHT22;11484;50.858;4.384;2023-07-13T12:14:12;24.20;79.60
22635;DHT22;11484;50.858;4.384;2023-07-13T12:16:38;24.30;79.50
22635;DHT22;11484;50.858;4.384;2023-07-13T12:19:19;24.30;80.20
22635;DHT22;11484;50.858;4.384;2023-07-13T12:21:48;24.30;80.10
22635;DHT22;11484;50.858;4.384;2023-07-13T12:24:18;24.30;80.00
22635;DHT22;11484;50.858;4.384;2023-07-13T12:26:45;24.30;80.80
22635;DHT22;11484;50.858;4.384;2023-07-13T12:29:17;24.30;82.20
22635;DHT22;11484;50.858;4.384;2023-07-13T12:31:45;24.00;81.00
22635;DHT22;11484;50.858;4.384;2023-07-13T12:34:12;23.50;83.60
22635;DHT22;11484;50.858;4.384;2023-07-13T12:36:59;23.10;87.40
22635;DHT22;11484;50.858;4.384;2023-07-13T12:39:35;22.70;93.80
22635;DHT22;11484;50.858;4.384;2023-07-13T12:45:00;22.10;99.90
22635;DHT22;11484;50.858;4.384;2023-07-13T12:47:27;22.00;99.90
22635;DHT22;11484;50.858;4.384;2023-07-13T12:49:59;21.80;99.90
22635;DHT22;11484;50.858;4.384;2023-07-13T12:52:32;21.80;99.90
22635;DHT22;11484;50.858;4.384;2023-07-13T12:55:12;21.80;99.90
22635;DHT22;11484;50.858;4.384;2023-07-13T12:57:56;21.70;99.90
22635;DHT22;11484;50.858;4.384;2023-07-13T13:02:57;21.60;99.90
22635;DHT22;11484;50.858;4.384;2023-07-13T13:05:25;21.60;99.90
22635;DHT22;11484;50.858;4.384;2023-07-13T13:07:51;21.60;99.90
22635;DHT22;11484;50.858;4.384;2023-07-13T13:10:17;21.70;99.90
22635;DHT22;11484;50.858;4.384;2023-07-13T13:12:43;21.70;99.90
22635;DHT22;11484;50.858;4.384;2023-07-13T13:15:11;21.90;99.90
22635;DHT22;11484;50.858;4.384;2023-07-13T13:17:40;22.10;99.90
22635;DHT22;11484;50.858;4.384;2023-07-13T13:20:17;22.30;99.90
22635;DHT22;11484;50.858;4.384;2023-07-13T13:22:43;22.60;99.90
22635;DHT22;11484;50.858;4.384;2023-07-13T13:25:13;22.70;99.90
22635;DHT22;11484;50.858;4.384;2023-07-13T13:27:41;22.80;99.90
22635;DHT22;11484;50.858;4.384;2023-07-13T13:30:15;22.80;99.90
22635;DHT22;11484;50.858;4.384;2023-07-13T13:32:43;22.90;99.90
22635;DHT22;11484;50.858;4.384;2023-07-13T13:35:16;23.10;99.90
22635;DHT22;11484;50.858;4.384;2023-07-13T13:37:43;23.30;99.90
22635;DHT22;11484;50.858;4.384;2023-07-13T13:40:21;23.40;99.90
22635;DHT22;11484;50.858;4.384;2023-07-13T13:42:48;23.60;99.90
22635;DHT22;11484;50.858;4.384;2023-07-13T13:45:14;23.80;99.90
22635;DHT22;11484;50.858;4.384;2023-07-13T13:47:43;23.90;99.90
22635;DHT22;11484;50.858;4.384;2023-07-13T13:50:17;24.00;99.90
22635;DHT22;11484;50.858;4.384;2023-07-13T13:52:44;24.10;99.90
22635;DHT22;11484;50.858;4.384;2023-07-13T13:55:20;24.10;99.90
22635;DHT22;11484;50.858;4.384;2023-07-13T13:57:47;24.10;99.90
22635;DHT22;11484;50.858;4.384;2023-07-13T14:00:14;24.10;99.90
22635;DHT22;11484;50.858;4.384;2023-07-13T14:02:46;24.20;99.80
22635;DHT22;11484;50.858;4.384;2023-07-13T14:05:15;24.10;99.20
22635;DHT22;11484;50.858;4.384;2023-07-13T14:07:41;24.30;99.40
22635;DHT22;11484;50.858;4.384;2023-07-13T14:10:14;24.40;98.80
22635;DHT22;11484;50.858;4.384;2023-07-13T14:12:42;24.60;97.90
22635;DHT22;11484;50.858;4.384;2023-07-13T14:15:30;24.60;98.50
22635;DHT22;11484;50.858;4.384;2023-07-13T14:17:59;24.60;97.70
22635;DHT22;11484;50.858;4.384;2023-07-13T14:20:25;24.60;96.90
22635;DHT22;11484;50.858;4.384;2023-07-13T14:22:54;24.60;97.40
22635;DHT22;11484;50.858;4.384;2023-07-13T14:25:20;24.70;97.40
22635;DHT22;11484;50.858;4.384;2023-07-13T14:27:49;24.70;96.60
22635;DHT22;11484;50.858;4.384;2023-07-13T14:30:19;24.60;96.10
22635;DHT22;11484;50.858;4.384;2023-07-13T14:32:45;24.60;95.60
22635;DHT22;11484;50.858;4.384;2023-07-13T14:35:12;24.60;96.30
22635;DHT22;11484;50.858;4.384;2023-07-13T14:37:39;24.60;96.00
22635;DHT22;11484;50.858;4.384;2023-07-13T14:40:26;24.70;96.00
22635;DHT22;11484;50.858;4.384;2023-07-13T14:42:52;24.60;95.40
22635;DHT22;11484;50.858;4.384;2023-07-13T14:45:20;24.70;94.80
22635;DHT22;11484;50.858;4.384;2023-07-13T14:47:46;24.80;94.10
22635;DHT22;11484;50.858;4.384;2023-07-13T14:50:30;24.60;93.10
22635;DHT22;11484;50.858;4.384;2023-07-13T14:52:58;24.60;92.90
22635;DHT22;11484;50.858;4.384;2023-07-13T14:55:24;24.60;92.90
22635;DHT22;11484;50.858;4.384;2023-07-13T14:57:52;24.40;93.40
22635;DHT22;11484;50.858;4.384;2023-07-13T15:00:19;24.50;93.50
22635;DHT22;11484;50.858;4.384;2023-07-13T15:02:53;24.40;93.80
22635;DHT22;11484;50.858;4.384;2023-07-13T15:05:32;24.40;93.90
22635;DHT22;11484;50.858;4.384;2023-07-13T15:08:00;24.50;93.50
22635;DHT22;11484;50.858;4.384;2023-07-13T15:10:31;24.60;93.10
22635;DHT22;11484;50.858;4.384;2023-07-13T15:13:12;24.50;93.00
22635;DHT22;11484;50.858;4.384;2023-07-13T15:15:40;24.60;93.00
22635;DHT22;11484;50.858;4.384;2023-07-13T15:18:11;24.50;92.30
22635;DHT22;11484;50.858;4.384;2023-07-13T15:20:38;24.40;91.70
22635;DHT22;11484;50.858;4.384;2023-07-13T15:23:04;24.50;91.10
22635;DHT22;11484;50.858;4.384;2023-07-13T15:25:32;24.50;90.80
22635;DHT22;11484;50.858;4.384;2023-07-13T15:27:59;24.40;90.80
22635;DHT22;11484;50.858;4.384;2023-07-13T15:30:28;24.20;91.10
22635;DHT22;11484;50.858;4.384;2023-07-13T15:32:56;24.20;91.20
22635;DHT22;11484;50.858;4.384;2023-07-13T15:35:25;24.20;91.20
22635;DHT22;11484;50.858;4.384;2023-07-13T15:37:51;24.30;91.20
22635;DHT22;11484;50.858;4.384;2023-07-13T15:40:16;24.30;90.90
22635;DHT22;11484;50.858;4.384;2023-07-13T15:42:44;24.40;90.90
22635;DHT22;11484;50.858;4.384;2023-07-13T15:45:21;24.40;91.10
22635;DHT22;11484;50.858;4.384;2023-07-13T15:47:48;24.50;91.20
22635;DHT22;11484;50.858;4.384;2023-07-13T15:50:23;24.60;91.40
22635;DHT22;11484;50.858;4.384;2023-07-13T15:52:54;24.60;91.40
22635;DHT22;11484;50.858;4.384;2023-07-13T15:55:21;24.60;91.40
22635;DHT22;11484;50.858;4.384;2023-07-13T15:57:51;24.50;91.60
22635;DHT22;11484;50.858;4.384;2023-07-13T16:00:26;24.40;91.00
22635;DHT22;11484;50.858;4.384;2023-07-13T16:02:53;24.50;91.10
22635;DHT22;11484;50.858;4.384;2023-07-13T16:05:21;24.50;90.20